createdAt,value
2023-03-02T00:02:02.260Z,13.27
2023-03-02T00:04:33.717Z,12.07
2023-03-02T00:07:04.784Z,12.93
2023-03-02T00:09:32.530Z,13.80
2023-03-02T00:11:59.807Z,13.05
2023-03-02T00:14:26.942Z,13.02
2023-03-02T00:16:54.033Z,13.07
2023-03-02T00:19:21.694Z,12.98
2023-03-02T00:21:48.734Z,14.07
2023-03-02T00:24:15.853Z,13.38
2023-03-02T00:26:43.128Z,13.98
2023-03-02T00:29:10.208Z,12.43
2023-03-02T00:31:38.032Z,13.40
2023-03-02T00:34:05.174Z,12.97
2023-03-02T00:36:32.476Z,13.27
2023-03-02T00:38:59.555Z,12.48
2023-03-02T00:41:26.794Z,13.43
2023-03-02T00:43:53.854Z,12.68
2023-03-02T00:46:23.176Z,11.13
2023-03-02T00:48:51.332Z,12.50
2023-03-02T00:51:18.545Z,13.35
2023-03-02T00:53:45.673Z,13.57
2023-03-02T00:56:12.888Z,12.68
2023-03-02T00:58:40.544Z,13.43
2023-03-02T01:01:10.630Z,14.68
2023-03-02T01:03:38.148Z,12.30
2023-03-02T01:06:05.820Z,13.00
2023-03-02T01:08:32.882Z,12.40
2023-03-02T01:11:01.525Z,12.03
2023-03-02T01:13:28.986Z,12.80
2023-03-02T01:16:03.098Z,12.93
2023-03-02T01:18:30.306Z,12.63
2023-03-02T01:21:05.666Z,12.85
2023-03-02T01:23:32.764Z,12.27
2023-03-02T01:25:59.960Z,12.40
2023-03-02T01:28:27.039Z,12.68
2023-03-02T01:30:54.407Z,12.30
2023-03-02T01:33:21.777Z,10.82
2023-03-02T01:35:48.876Z,11.07
2023-03-02T01:38:16.048Z,12.15
2023-03-02T01:40:43.169Z,9.90
2023-03-02T01:43:15.906Z,12.98
2023-03-02T01:45:53.684Z,12.50
2023-03-02T01:48:28.499Z,12.23
2023-03-02T01:50:56.179Z,13.00
2023-03-02T01:53:26.113Z,12.25
2023-03-02T01:55:53.430Z,12.85
2023-03-02T01:58:20.978Z,12.43
2023-03-02T02:00:48.370Z,11.63
2023-03-02T02:03:24.111Z,12.32
2023-03-02T02:06:29.011Z,12.77
2023-03-02T02:08:57.512Z,13.90
2023-03-02T02:11:25.422Z,12.05
2023-03-02T02:13:55.803Z,13.73
2023-03-02T02:16:23.059Z,12.65
2023-03-02T02:18:50.369Z,13.20
2023-03-02T02:21:19.084Z,13.30
2023-03-02T02:24:03.143Z,12.68
2023-03-02T02:26:56.360Z,12.30
2023-03-02T02:29:32.944Z,12.43
2023-03-02T02:32:13.957Z,12.40
2023-03-02T02:35:05.087Z,13.38
2023-03-02T02:37:36.014Z,11.80
2023-03-02T02:40:07.489Z,11.00
2023-03-02T02:42:36.994Z,11.13
2023-03-02T02:45:07.060Z,12.82
2023-03-02T02:47:34.261Z,12.30
2023-03-02T02:50:01.415Z,12.32
2023-03-02T02:52:29.080Z,11.97
2023-03-02T02:54:57.425Z,12.18
2023-03-02T02:57:26.916Z,12.30
2023-03-02T02:59:56.445Z,10.88
2023-03-02T03:02:28.383Z,11.50
2023-03-02T03:05:03.002Z,11.17
2023-03-02T03:07:31.483Z,11.07
2023-03-02T03:10:21.994Z,10.80
2023-03-02T03:12:49.786Z,10.45
2023-03-02T03:15:17.041Z,11.32
2023-03-02T03:17:49.657Z,11.07
2023-03-02T03:20:17.342Z,11.05
2023-03-02T03:22:44.482Z,10.85
2023-03-02T03:25:15.255Z,10.43
2023-03-02T03:27:43.195Z,9.85
2023-03-02T03:30:12.270Z,9.93
2023-03-02T03:32:39.653Z,9.90
2023-03-02T03:35:11.643Z,10.25
2023-03-02T03:37:40.064Z,9.95
2023-03-02T03:40:09.727Z,9.07
2023-03-02T03:42:39.725Z,9.17
2023-03-02T03:45:08.786Z,9.82
2023-03-02T03:47:36.271Z,9.95
2023-03-02T03:50:03.753Z,10.43
2023-03-02T03:52:30.957Z,9.93
2023-03-02T03:54:59.535Z,11.13
2023-03-02T03:57:29.819Z,10.73
2023-03-02T03:59:56.894Z,11.35
2023-03-02T04:02:24.758Z,9.93
2023-03-02T04:04:52.196Z,10.77
2023-03-02T04:07:19.575Z,10.73
2023-03-02T04:09:46.748Z,10.00
2023-03-02T04:12:13.875Z,9.13
2023-03-02T04:14:40.925Z,10.35
2023-03-02T04:17:08.232Z,10.15
2023-03-02T04:19:35.561Z,10.13
2023-03-02T04:22:04.093Z,9.82
2023-03-02T04:24:32.149Z,10.45
2023-03-02T04:26:59.213Z,10.40
2023-03-02T04:29:26.291Z,9.18
2023-03-02T04:31:53.418Z,8.23
2023-03-02T04:34:20.623Z,9.55
2023-03-02T04:36:47.857Z,10.23
2023-03-02T04:39:16.947Z,10.05
2023-03-02T04:41:45.546Z,9.30
2023-03-02T04:44:13.610Z,10.50
2023-03-02T04:46:43.509Z,9.43
2023-03-02T04:49:11.932Z,10.25
2023-03-02T04:51:44.251Z,8.88
2023-03-02T04:54:19.507Z,9.95
2023-03-02T04:56:48.620Z,9.87
2023-03-02T04:59:16.275Z,8.77
2023-03-02T05:01:44.511Z,8.57
2023-03-02T05:04:13.245Z,10.15
2023-03-02T05:06:40.385Z,9.93
2023-03-02T05:09:07.864Z,9.23
2023-03-02T05:11:35.110Z,9.85
2023-03-02T05:14:05.038Z,9.38
2023-03-02T05:16:34.985Z,8.98
2023-03-02T05:19:02.994Z,8.93
2023-03-02T05:21:30.485Z,9.70
2023-03-02T05:23:57.654Z,9.98
2023-03-02T05:26:24.733Z,10.40
2023-03-02T05:28:53.962Z,9.70
2023-03-02T05:31:23.990Z,10.65
2023-03-02T05:33:51.092Z,8.63
2023-03-02T05:36:20.279Z,8.25
2023-03-02T05:38:48.443Z,9.57
2023-03-02T05:41:15.484Z,9.43
2023-03-02T05:43:42.534Z,9.95
2023-03-02T05:46:09.633Z,9.40
2023-03-02T05:48:36.828Z,9.73
2023-03-02T05:51:04.302Z,9.93
2023-03-02T05:53:31.426Z,9.13
2023-03-02T05:55:58.524Z,9.50
2023-03-02T05:58:25.641Z,8.83
2023-03-02T06:00:52.705Z,9.02
2023-03-02T06:03:19.858Z,10.40
2023-03-02T06:05:50.951Z,10.27
2023-03-02T06:08:19.012Z,10.15
2023-03-02T06:10:46.248Z,9.40
2023-03-02T06:13:13.352Z,9.15
2023-03-02T06:15:40.631Z,10.25
2023-03-02T06:18:07.838Z,10.00
2023-03-02T06:20:34.902Z,9.52
2023-03-02T06:23:02.044Z,10.17
2023-03-02T06:25:29.104Z,10.20
2023-03-02T06:27:56.158Z,10.95
2023-03-02T06:30:25.463Z,10.90
2023-03-02T06:32:52.917Z,11.35
2023-03-02T06:35:21.157Z,11.30
2023-03-02T06:37:48.289Z,10.57
2023-03-02T06:40:15.515Z,10.07
2023-03-02T06:42:42.859Z,10.30
2023-03-02T06:45:10.771Z,10.60
2023-03-02T06:47:38.338Z,11.73
2023-03-02T06:50:06.520Z,11.90
2023-03-02T06:52:33.710Z,11.50
2023-03-02T06:55:00.841Z,11.05
2023-03-02T06:57:33.770Z,11.25
2023-03-02T07:00:04.264Z,11.53
2023-03-02T07:02:31.328Z,10.68
2023-03-02T07:04:58.425Z,11.00
2023-03-02T07:07:25.578Z,10.95
2023-03-02T07:09:52.659Z,11.65
2023-03-02T07:12:19.754Z,12.00
2023-03-02T07:14:46.859Z,12.73
2023-03-02T07:17:14.005Z,13.18
2023-03-02T07:19:41.437Z,14.50
2023-03-02T07:22:08.520Z,13.20
2023-03-02T07:24:35.633Z,13.37
2023-03-02T07:27:02.717Z,11.50
2023-03-02T07:29:30.013Z,11.95
2023-03-02T07:31:59.874Z,11.57
2023-03-02T07:34:27.584Z,12.40
2023-03-02T07:36:54.758Z,11.77
2023-03-02T07:39:21.951Z,11.23
2023-03-02T07:41:48.993Z,13.18
2023-03-02T07:44:20.275Z,13.85
2023-03-02T07:46:47.502Z,12.02
2023-03-02T07:49:14.640Z,12.67
2023-03-02T07:51:41.681Z,13.70
2023-03-02T07:54:08.989Z,14.50
2023-03-02T07:56:36.206Z,13.57
2023-03-02T07:59:03.835Z,13.60
2023-03-02T08:01:31.477Z,13.57
2023-03-02T08:03:58.899Z,15.02
2023-03-02T08:06:25.980Z,13.20
2023-03-02T08:08:53.048Z,13.48
2023-03-02T08:11:20.169Z,12.45
2023-03-02T08:13:47.228Z,13.87
2023-03-02T08:16:15.765Z,13.40
2023-03-02T08:18:43.188Z,13.50
2023-03-02T08:21:16.019Z,14.02
2023-03-02T08:23:43.285Z,14.68
2023-03-02T08:26:13.513Z,14.03
2023-03-02T08:28:41.493Z,13.00
2023-03-02T08:31:09.235Z,14.23
2023-03-02T08:33:37.032Z,14.32
2023-03-02T08:36:09.584Z,13.40
2023-03-02T08:38:36.695Z,12.87
2023-03-02T08:41:10.043Z,13.35
2023-03-02T08:43:37.168Z,12.82
2023-03-02T08:46:04.922Z,13.20
2023-03-02T08:48:32.094Z,12.35
2023-03-02T08:51:04.546Z,13.33
2023-03-02T08:53:34.320Z,12.98
2023-03-02T08:56:01.590Z,13.90
2023-03-02T08:58:29.239Z,13.02
2023-03-02T09:00:56.527Z,12.73
2023-03-02T09:03:23.608Z,14.03
2023-03-02T09:05:51.109Z,12.93
2023-03-02T09:08:18.182Z,12.80
2023-03-02T09:10:45.415Z,13.43
2023-03-02T09:13:12.559Z,12.82
2023-03-02T09:15:39.601Z,11.30
2023-03-02T09:18:06.807Z,12.43
2023-03-02T09:20:34.541Z,14.38
2023-03-02T09:23:01.614Z,12.48
2023-03-02T09:25:29.287Z,14.75
2023-03-02T09:27:56.477Z,12.03
2023-03-02T09:30:23.673Z,12.00
2023-03-02T09:32:50.839Z,11.90
2023-03-02T09:35:18.006Z,12.13
2023-03-02T09:37:45.094Z,11.65
2023-03-02T09:40:24.368Z,12.43
2023-03-02T09:43:03.929Z,12.77
2023-03-02T09:45:40.552Z,11.65
2023-03-02T09:48:30.701Z,9.70
2023-03-02T09:51:25.624Z,7.53
2023-03-02T09:54:02.833Z,7.47
2023-03-02T09:56:31.043Z,8.23
2023-03-02T09:59:02.689Z,6.82
2023-03-02T10:01:37.944Z,7.78
2023-03-02T10:04:28.124Z,7.85
2023-03-02T10:07:05.663Z,7.83
2023-03-02T10:09:32.792Z,6.80
2023-03-02T10:12:10.424Z,6.75
2023-03-02T10:14:57.526Z,6.55
2023-03-02T10:17:43.720Z,7.82
2023-03-02T10:20:19.128Z,9.17
2023-03-02T10:22:49.848Z,8.55
2023-03-02T10:25:24.296Z,8.23
2023-03-02T10:27:54.174Z,6.93
2023-03-02T10:30:29.903Z,8.10
2023-03-02T10:33:00.842Z,6.93
2023-03-02T10:35:28.902Z,6.93
2023-03-02T10:38:04.394Z,6.93
2023-03-02T10:40:43.989Z,7.00
2023-03-02T10:43:20.907Z,7.43
2023-03-02T10:46:04.652Z,7.33
2023-03-02T10:48:31.861Z,7.60
2023-03-02T10:51:00.552Z,7.50
2023-03-02T10:53:28.990Z,8.05
2023-03-02T10:55:56.078Z,8.55
2023-03-02T10:58:29.605Z,8.67
2023-03-02T11:01:04.756Z,8.05
2023-03-02T11:03:32.876Z,8.38
2023-03-02T11:06:12.172Z,8.40
2023-03-02T11:08:39.191Z,8.80
2023-03-02T11:11:06.230Z,8.40
2023-03-02T11:13:37.978Z,10.10
2023-03-02T11:16:23.255Z,11.13
2023-03-02T11:18:55.007Z,10.90
2023-03-02T11:21:25.985Z,8.25
2023-03-02T11:24:00.815Z,7.70
2023-03-02T11:26:46.187Z,6.93
2023-03-02T11:29:29.228Z,7.47
2023-03-02T11:32:06.057Z,8.55
2023-03-02T11:34:43.499Z,8.40
2023-03-02T11:37:23.904Z,8.10
2023-03-02T11:40:01.136Z,8.35
2023-03-02T11:42:32.413Z,8.38
2023-03-02T11:45:16.935Z,8.38
2023-03-02T11:48:03.341Z,9.48
2023-03-02T11:50:33.154Z,9.67
2023-03-02T11:53:03.561Z,9.57
2023-03-02T11:55:34.340Z,9.98
2023-03-02T11:58:03.417Z,10.10
2023-03-02T12:00:34.077Z,10.65
2023-03-02T12:03:06.975Z,9.40
2023-03-02T12:05:37.204Z,9.18
2023-03-02T12:08:19.353Z,8.80
2023-03-02T12:10:59.474Z,9.20
2023-03-02T12:13:52.888Z,8.52
2023-03-02T12:16:22.662Z,8.43
2023-03-02T12:18:51.185Z,8.63
2023-03-02T12:21:23.366Z,9.02
2023-03-02T12:23:50.449Z,9.77
2023-03-02T12:26:20.261Z,9.50
2023-03-02T12:29:11.732Z,9.90
2023-03-02T12:31:40.942Z,9.68
2023-03-02T12:34:39.621Z,10.48
2023-03-02T12:37:16.390Z,10.15
2023-03-02T12:40:03.085Z,10.50
2023-03-02T12:43:00.124Z,11.17
2023-03-02T12:45:39.967Z,11.00
2023-03-02T12:48:24.069Z,10.32
2023-03-02T12:50:54.241Z,10.30
2023-03-02T12:53:21.316Z,10.02
2023-03-02T12:55:48.727Z,9.57
2023-03-02T12:58:27.787Z,10.25
2023-03-02T13:00:57.030Z,9.55
2023-03-02T13:03:26.458Z,10.40
2023-03-02T13:06:05.103Z,10.60
2023-03-02T13:08:33.121Z,9.77
2023-03-02T13:11:03.635Z,10.82
2023-03-02T13:13:39.526Z,11.25
2023-03-02T13:16:19.508Z,10.63
2023-03-02T13:18:47.246Z,10.93
2023-03-02T13:21:15.031Z,10.07
2023-03-02T13:23:50.263Z,10.50
2023-03-02T13:26:28.435Z,10.57
2023-03-02T13:29:19.263Z,10.73
2023-03-02T13:31:46.824Z,10.90
2023-03-02T13:34:27.529Z,11.80
2023-03-02T13:36:55.078Z,10.38
2023-03-02T13:39:26.279Z,10.95
2023-03-02T13:41:56.358Z,10.05
2023-03-02T13:44:28.952Z,10.40
2023-03-02T13:46:56.401Z,9.93
2023-03-02T13:49:35.783Z,10.15
2023-03-02T13:52:07.745Z,9.68
2023-03-02T13:54:36.555Z,9.82
2023-03-02T13:57:04.399Z,8.73
2023-03-02T13:59:32.316Z,9.47
2023-03-02T14:01:59.501Z,8.85
2023-03-02T14:04:26.695Z,8.85
2023-03-02T14:06:54.784Z,8.63
2023-03-02T14:09:22.118Z,9.00
2023-03-02T14:11:51.576Z,7.90
2023-03-02T14:14:21.368Z,7.57
2023-03-02T14:16:48.590Z,6.80
2023-03-02T14:19:20.102Z,7.38
2023-03-02T14:21:48.006Z,6.20
2023-03-02T14:24:15.565Z,7.63
2023-03-02T14:26:47.994Z,6.90
2023-03-02T14:29:28.460Z,6.25
2023-03-02T14:31:57.192Z,6.35
2023-03-02T14:34:24.276Z,5.30
2023-03-02T14:36:52.930Z,5.30
2023-03-02T14:39:32.924Z,5.22
2023-03-02T14:42:00.450Z,5.18
2023-03-02T14:44:27.606Z,5.18
2023-03-02T14:46:54.748Z,5.20
2023-03-02T14:49:21.843Z,5.17
2023-03-02T14:52:04.657Z,4.97
2023-03-02T14:54:37.524Z,5.80
2023-03-02T14:57:07.312Z,4.30
2023-03-02T14:59:34.360Z,5.43
2023-03-02T15:02:10.397Z,5.20
2023-03-02T15:04:47.334Z,4.43
2023-03-02T15:07:21.028Z,4.57
2023-03-02T15:09:48.478Z,4.03
2023-03-02T15:12:15.520Z,4.35
2023-03-02T15:14:42.580Z,3.70
2023-03-02T15:17:10.599Z,3.40
2023-03-02T15:19:37.695Z,3.78
2023-03-02T15:22:04.800Z,4.00
2023-03-02T15:24:33.329Z,4.40
2023-03-02T15:27:00.787Z,4.60
2023-03-02T15:29:27.831Z,4.60
2023-03-02T15:31:54.985Z,4.50
2023-03-02T15:34:22.144Z,4.88
2023-03-02T15:36:49.430Z,4.93
2023-03-02T15:39:16.776Z,4.53
2023-03-02T15:41:43.936Z,4.43
2023-03-02T15:44:22.872Z,4.40
2023-03-02T15:46:52.427Z,4.50
2023-03-02T15:49:23.117Z,4.20
2023-03-02T15:51:54.579Z,4.20
2023-03-02T15:54:21.918Z,4.65
2023-03-02T15:56:53.358Z,5.20
2023-03-02T15:59:21.683Z,5.07
2023-03-02T16:01:49.609Z,5.32
2023-03-02T16:04:16.748Z,5.10
2023-03-02T16:06:44.096Z,5.43
2023-03-02T16:09:11.222Z,5.70
2023-03-02T16:11:38.276Z,6.15
2023-03-02T16:14:05.322Z,7.07
2023-03-02T16:16:32.773Z,6.00
2023-03-02T16:18:59.887Z,6.22
2023-03-02T16:21:28.632Z,5.50
2023-03-02T16:24:02.985Z,5.50
2023-03-02T16:26:31.855Z,5.88
2023-03-02T16:28:59.383Z,5.93
2023-03-02T16:31:27.034Z,6.25
2023-03-02T16:33:55.874Z,6.18
2023-03-02T16:36:23.240Z,6.35
2023-03-02T16:38:50.310Z,6.38
2023-03-02T16:41:22.275Z,6.80
2023-03-02T16:43:54.241Z,6.47
2023-03-02T16:46:23.012Z,6.18
2023-03-02T16:48:50.550Z,6.82
2023-03-02T16:51:18.596Z,7.15
2023-03-02T16:53:46.373Z,7.23
2023-03-02T16:56:14.309Z,7.13
2023-03-02T16:58:42.119Z,7.22
2023-03-02T17:01:11.989Z,7.57
2023-03-02T17:03:39.100Z,6.65
2023-03-02T17:06:08.531Z,6.53
2023-03-02T17:08:35.768Z,7.07
2023-03-02T17:11:02.873Z,6.80
2023-03-02T17:13:30.024Z,6.88
2023-03-02T17:15:57.708Z,7.03
2023-03-02T17:18:27.613Z,6.67
2023-03-02T17:20:56.937Z,7.05
2023-03-02T17:23:24.977Z,8.32
2023-03-02T17:25:52.023Z,6.75
2023-03-02T17:28:19.090Z,8.85
2023-03-02T17:30:46.582Z,8.23
2023-03-02T17:33:13.840Z,8.05
2023-03-02T17:35:40.919Z,7.85
2023-03-02T17:38:08.034Z,7.60
2023-03-02T17:40:35.479Z,8.00
2023-03-02T17:43:02.675Z,7.50
2023-03-02T17:45:29.794Z,7.70
2023-03-02T17:47:58.343Z,7.25
2023-03-02T17:50:26.282Z,8.90
2023-03-02T17:52:54.067Z,7.43
2023-03-02T17:55:21.117Z,7.47
2023-03-02T17:57:48.185Z,7.00
2023-03-02T18:00:18.246Z,6.97
2023-03-02T18:02:45.421Z,7.03
2023-03-02T18:05:12.919Z,7.38
2023-03-02T18:07:40.307Z,7.73
2023-03-02T18:10:07.666Z,8.05
2023-03-02T18:12:34.942Z,6.80
2023-03-02T18:15:02.108Z,6.53
2023-03-02T18:17:29.211Z,7.22
2023-03-02T18:19:56.287Z,7.07
2023-03-02T18:22:23.359Z,7.07
2023-03-02T18:24:51.823Z,7.75
2023-03-02T18:27:19.321Z,6.80
2023-03-02T18:29:46.409Z,8.35
2023-03-02T18:32:13.946Z,6.80
2023-03-02T18:34:41.141Z,7.28
2023-03-02T18:37:08.393Z,7.35
2023-03-02T18:39:35.683Z,6.97
2023-03-02T18:42:02.975Z,8.05
2023-03-02T18:44:31.197Z,7.40
2023-03-02T18:46:58.715Z,7.50
2023-03-02T18:49:25.892Z,8.10
2023-03-02T18:51:55.042Z,7.60
2023-03-02T18:54:23.520Z,7.65
2023-03-02T18:56:50.993Z,8.30
2023-03-02T18:59:18.288Z,7.65
2023-03-02T19:01:46.189Z,8.35
2023-03-02T19:04:14.327Z,8.57
2023-03-02T19:06:44.970Z,8.35
2023-03-02T19:09:12.161Z,8.63
2023-03-02T19:11:39.201Z,8.77
2023-03-02T19:14:07.447Z,8.70
2023-03-02T19:16:35.364Z,9.23
2023-03-02T19:19:02.506Z,8.90
2023-03-02T19:21:29.621Z,9.17
2023-03-02T19:23:57.532Z,10.15
2023-03-02T19:26:24.955Z,9.73
2023-03-02T19:28:52.013Z,9.13
2023-03-02T19:31:19.289Z,10.50
2023-03-02T19:33:46.726Z,10.27
2023-03-02T19:36:13.904Z,11.48
2023-03-02T19:38:42.842Z,11.00
2023-03-02T19:41:12.812Z,11.27
2023-03-02T19:43:41.891Z,11.73
2023-03-02T19:46:10.779Z,11.53
2023-03-02T19:48:38.591Z,11.75
2023-03-02T19:51:07.731Z,13.02
2023-03-02T19:53:36.639Z,12.88
2023-03-02T19:56:09.257Z,12.13
2023-03-02T19:58:36.378Z,12.67
2023-03-02T20:01:04.358Z,11.60
2023-03-02T20:03:31.478Z,11.88
2023-03-02T20:05:59.461Z,12.88
2023-03-02T20:08:26.709Z,12.10
2023-03-02T20:10:53.926Z,11.87
2023-03-02T20:13:21.052Z,11.57
2023-03-02T20:15:48.198Z,11.57
2023-03-02T20:18:18.636Z,11.93
2023-03-02T20:20:47.067Z,12.68
2023-03-02T20:23:14.550Z,14.90
2023-03-02T20:25:42.171Z,11.18
2023-03-02T20:28:11.919Z,12.55
2023-03-02T20:30:45.082Z,11.90
2023-03-02T20:33:12.603Z,10.90
2023-03-02T20:35:42.202Z,13.17
2023-03-02T20:38:14.815Z,11.35
2023-03-02T20:40:42.044Z,11.13
2023-03-02T20:43:09.290Z,11.25
2023-03-02T20:45:36.363Z,12.32
2023-03-02T20:48:04.331Z,10.97
2023-03-02T20:50:32.592Z,11.60
2023-03-02T20:53:00.305Z,12.45
2023-03-02T20:55:27.446Z,12.35
2023-03-02T20:57:55.451Z,11.20
2023-03-02T21:00:29.350Z,11.73
2023-03-02T21:02:57.236Z,11.18
2023-03-02T21:05:25.134Z,12.00
2023-03-02T21:07:54.225Z,11.57
2023-03-02T21:10:27.041Z,11.10
2023-03-02T21:12:54.225Z,10.80
2023-03-02T21:15:23.758Z,10.55
2023-03-02T21:17:51.800Z,10.73
2023-03-02T21:20:19.098Z,10.73
2023-03-02T21:22:46.282Z,12.02
2023-03-02T21:25:13.606Z,12.27
2023-03-02T21:27:41.051Z,10.55
2023-03-02T21:30:12.205Z,11.73
2023-03-02T21:32:39.269Z,11.75
2023-03-02T21:35:06.381Z,11.93
2023-03-02T21:37:33.652Z,11.17
2023-03-02T21:40:00.776Z,13.63
2023-03-02T21:42:27.893Z,11.85
2023-03-02T21:44:55.106Z,11.48
2023-03-02T21:47:22.228Z,10.75
2023-03-02T21:49:49.306Z,10.90
2023-03-02T21:52:16.342Z,10.13
2023-03-02T21:54:43.412Z,10.85
2023-03-02T21:57:10.751Z,11.55
2023-03-02T21:59:37.797Z,12.05
2023-03-02T22:02:05.081Z,12.10
2023-03-02T22:04:33.702Z,11.25
2023-03-02T22:07:01.673Z,11.30
2023-03-02T22:09:28.821Z,11.07
2023-03-02T22:11:55.891Z,11.85
2023-03-02T22:14:22.929Z,10.97
2023-03-02T22:16:52.998Z,11.45
2023-03-02T22:19:25.746Z,10.70
2023-03-02T22:21:54.660Z,11.60
2023-03-02T22:24:31.808Z,11.52
2023-03-02T22:27:19.091Z,11.57
2023-03-02T22:29:47.809Z,10.90
2023-03-02T22:32:17.436Z,11.57
2023-03-02T22:34:46.337Z,11.48
2023-03-02T22:37:17.504Z,11.05
2023-03-02T22:39:45.494Z,11.23
2023-03-02T22:42:19.047Z,11.05
2023-03-02T22:44:51.387Z,11.18
2023-03-02T22:47:19.729Z,10.77
2023-03-02T22:49:55.505Z,11.30
2023-03-02T22:52:24.650Z,11.43
2023-03-02T22:54:51.832Z,12.38
2023-03-02T22:57:30.714Z,12.57
2023-03-02T23:00:16.042Z,12.00
2023-03-02T23:02:44.933Z,11.25
2023-03-02T23:05:26.888Z,11.00
2023-03-02T23:08:09.853Z,12.77
2023-03-02T23:10:36.963Z,11.90
2023-03-02T23:13:04.201Z,12.13
2023-03-02T23:15:35.179Z,11.50
2023-03-02T23:18:02.413Z,12.63
2023-03-02T23:20:29.669Z,12.75
2023-03-02T23:22:57.132Z,13.50
2023-03-02T23:25:24.216Z,12.90
2023-03-02T23:27:51.543Z,12.35
2023-03-02T23:30:20.633Z,13.17
2023-03-02T23:32:47.706Z,12.90
2023-03-02T23:35:14.809Z,13.77
2023-03-02T23:37:41.918Z,14.27
2023-03-02T23:40:09.545Z,13.05
2023-03-02T23:42:36.778Z,13.40
2023-03-02T23:45:04.504Z,14.95
2023-03-02T23:47:31.557Z,14.13
2023-03-02T23:49:58.741Z,13.57
2023-03-02T23:52:25.827Z,14.60
2023-03-02T23:54:53.440Z,13.10
2023-03-02T23:57:20.528Z,12.75
2023-03-02T23:59:47.622Z,13.73
